Time;durP1;ratioP1;P1;durP2;ratioP2;P2;SDS_P1;SDS_P2;PMS_P1;PMS_P2;Temp;Humidity;BMP_temperature;BMP_pressure;BME280_temperature;BME280_humidity;BME280_pressure;Samples;Min_cycle;Max_cycle;Signal;HPM_P1;HPM_P2
2024/01/20 00:02:26;;;;;;;1.73;1.63;;;4.30;96.20;;;4.08;60.35;94800.97;5073403;28;20480;-61
2024/01/20 00:04:55;;;;;;;1.47;1.37;;;4.30;96.40;;;4.05;59.76;94811.59;5072518;28;20463;-61
2024/01/20 00:07:23;;;;;;;2.00;1.80;;;4.30;96.30;;;4.05;60.19;94822.00;5072871;28;20493;-59
2024/01/20 00:09:50;;;;;;;1.50;1.40;;;4.20;96.30;;;4.03;60.23;94821.25;5062595;28;20968;-61
2024/01/20 00:12:17;;;;;;;1.70;1.60;;;4.30;96.30;;;3.97;59.96;94827.69;5071455;28;20952;-63
2024/01/20 00:14:45;;;;;;;1.40;1.30;;;4.20;96.20;;;3.95;60.26;94829.59;5060937;28;20458;-60
2024/01/20 00:17:12;;;;;;;1.63;1.53;;;4.20;96.30;;;3.97;59.87;94832.06;5070621;28;20467;-62
2024/01/20 00:19:39;;;;;;;1.10;1.00;;;4.20;96.20;;;3.95;60.14;94824.38;5072328;28;20576;-64
2024/01/20 00:22:08;;;;;;;1.57;1.43;;;4.20;96.20;;;3.96;59.99;94831.22;5072562;28;20501;-61
2024/01/20 00:24:35;;;;;;;1.50;1.40;;;4.20;96.30;;;3.97;60.09;94839.84;5071848;28;20469;-63
2024/01/20 00:27:03;;;;;;;1.30;1.20;;;4.20;96.30;;;3.91;59.97;94844.53;5072660;28;20686;-61
2024/01/20 00:29:30;;;;;;;1.57;1.47;;;4.20;96.20;;;3.88;60.39;94849.13;5072622;28;20524;-63
2024/01/20 00:31:58;;;;;;;2.17;1.50;;;4.10;96.30;;;3.89;59.94;94853.41;5072628;28;20463;-59
2024/01/20 00:34:25;;;;;;;1.50;1.40;;;4.10;96.30;;;3.90;60.20;94850.69;5072532;28;20547;-66
2024/01/20 00:36:52;;;;;;;1.53;1.30;;;4.10;96.30;;;3.85;59.95;94852.75;5072604;28;20520;-60
2024/01/20 00:39:21;;;;;;;1.87;1.60;;;4.10;96.20;;;3.82;59.75;94858.16;5075540;28;20455;-62
2024/01/20 00:41:48;;;;;;;2.00;1.80;;;4.10;96.30;;;3.82;60.30;94865.94;5071166;28;20497;-63
2024/01/20 00:44:15;;;;;;;1.63;1.50;;;4.00;96.30;;;3.84;60.00;94860.66;5072115;28;21043;-60
2024/01/20 00:46:43;;;;;;;1.57;1.47;;;4.10;96.50;;;3.81;60.17;94864.31;5071881;28;20494;-61
2024/01/20 00:49:10;;;;;;;1.33;1.23;;;4.00;96.40;;;3.80;60.00;94860.03;5072154;28;20458;-60
2024/01/20 00:51:37;;;;;;;1.60;1.47;;;4.00;96.40;;;3.82;60.16;94873.75;5071975;28;20479;-59
2024/01/20 00:54:05;;;;;;;1.80;1.70;;;4.00;96.40;;;3.83;60.27;94880.63;5072009;28;20806;-60
2024/01/20 00:56:33;;;;;;;1.10;1.00;;;4.00;96.50;;;3.83;60.15;94891.03;5071796;28;20999;-64
2024/01/20 00:59:01;;;;;;;1.70;1.60;;;4.10;96.40;;;3.81;60.11;94887.72;5068489;28;20992;-61
2024/01/20 01:01:28;;;;;;;3.60;1.60;;;4.00;96.30;;;3.80;60.01;94900.81;5071950;28;20547;-63
2024/01/20 01:03:55;;;;;;;1.33;1.23;;;4.00;96.20;;;3.77;60.51;94888.84;5071846;28;20476;-62
2024/01/20 01:06:23;;;;;;;1.53;1.43;;;4.00;96.50;;;3.76;60.36;94895.81;5068202;28;20486;-61
2024/01/20 01:08:50;;;;;;;1.77;1.67;;;4.00;96.60;;;3.77;60.30;94891.44;5068006;28;20487;-61
2024/01/20 01:11:18;;;;;;;1.30;1.20;;;4.00;96.40;;;3.76;60.03;94901.00;5068047;28;20474;-62
2024/01/20 01:13:46;;;;;;;1.67;1.57;;;4.00;96.30;;;3.76;60.10;94902.75;5067918;28;20451;-61
2024/01/20 01:16:14;;;;;;;1.50;1.40;;;4.00;96.30;;;3.75;59.73;94909.75;5067812;28;20478;-63
2024/01/20 01:18:41;;;;;;;1.30;1.20;;;4.00;96.30;;;3.72;60.09;94906.50;5067817;28;20466;-63
2024/01/20 01:21:09;;;;;;;2.67;1.70;;;4.00;96.30;;;3.71;60.20;94907.44;5067255;28;20500;-61
2024/01/20 01:23:36;;;;;;;1.67;1.50;;;3.90;96.50;;;3.66;60.10;94907.72;5067725;28;20443;-60
2024/01/20 01:26:03;;;;;;;1.50;1.40;;;3.90;96.50;;;3.63;60.66;94913.13;5067252;28;20555;-64
2024/01/20 01:28:31;;;;;;;1.50;1.40;;;3.90;96.70;;;3.59;60.68;94909.88;5067353;28;21045;-63
2024/01/20 01:30:59;;;;;;;1.87;1.77;;;3.80;96.80;;;3.59;60.62;94912.47;5072426;28;20988;-63
2024/01/20 01:33:27;;;;;;;1.40;1.27;;;3.80;97.10;;;3.59;60.70;94916.84;5067454;28;20515;-64
2024/01/20 01:35:54;;;;;;;1.47;1.37;;;3.80;97.10;;;3.58;61.26;94913.41;5071542;28;20470;-61
2024/01/20 01:38:21;;;;;;;2.07;1.60;;;3.80;97.10;;;3.57;60.89;94922.13;5071296;28;20459;-62
2024/01/20 01:40:48;;;;;;;8.83;1.53;;;3.80;97.20;;;3.58;61.13;94912.59;5071248;28;20479;-61
2024/01/20 01:43:16;;;;;;;1.60;1.40;;;3.80;97.50;;;3.61;61.10;94906.34;5071328;28;20546;-63
2024/01/20 01:45:43;;;;;;;1.63;1.53;;;3.90;97.50;;;3.64;61.44;94903.53;5071226;28;20479;-63
2024/01/20 01:48:12;;;;;;;1.60;1.50;;;3.80;98.10;;;3.62;61.62;94898.44;5071086;28;20557;-63
2024/01/20 01:50:39;;;;;;;2.10;1.90;;;3.80;98.20;;;3.60;62.26;94900.31;5071538;28;20470;-60
2024/01/20 01:53:06;;;;;;;1.83;1.73;;;3.80;98.30;;;3.56;62.08;94898.81;5071219;28;21200;-61
2024/01/20 01:55:34;;;;;;;1.70;1.60;;;3.80;98.50;;;3.52;61.90;94912.97;5071107;28;20566;-60
2024/01/20 01:58:03;;;;;;;1.77;1.40;;;3.80;98.20;;;3.50;62.24;94926.06;5071043;28;20454;-61
2024/01/20 02:00:30;;;;;;;2.13;2.03;;;3.70;98.30;;;3.49;62.27;94926.97;5071068;28;20458;-60
2024/01/20 02:02:57;;;;;;;1.60;1.50;;;3.70;98.80;;;3.46;62.37;94921.97;5070644;28;20983;-61
2024/01/20 02:05:26;;;;;;;1.50;1.40;;;3.70;98.70;;;3.50;62.67;94922.59;5070697;28;20543;-62
2024/01/20 02:07:53;;;;;;;1.20;1.10;;;3.70;98.90;;;3.49;61.93;94916.59;5070473;28;20586;-62
2024/01/20 02:10:21;;;;;;;1.20;1.00;;;3.70;98.50;;;3.48;62.53;94912.31;5070595;28;20556;-60
2024/01/20 02:12:49;;;;;;;1.30;1.20;;;3.70;98.70;;;3.47;62.57;94907.19;5070528;28;20447;-61
2024/01/20 02:15:17;;;;;;;1.60;1.50;;;3.70;98.70;;;3.46;62.44;94901.16;5069698;28;21016;-63
2024/01/20 02:17:53;;;;;;;1.30;1.20;;;3.70;98.70;;;3.42;62.15;94907.47;5070977;28;20467;-60
2024/01/20 02:20:21;;;;;;;1.70;1.60;;;3.70;98.60;;;3.33;62.77;94913.25;5067102;28;21025;-63
2024/01/20 02:22:49;;;;;;;1.30;1.20;;;3.60;98.70;;;3.30;62.70;94908.25;5070123;28;20943;-63
2024/01/20 02:25:17;;;;;;;1.40;1.30;;;3.50;98.90;;;3.27;62.63;94913.63;5070136;28;20497;-63
2024/01/20 02:27:44;;;;;;;2.00;1.40;;;3.50;98.80;;;3.28;62.78;94917.91;5070161;28;20490;-60
2024/01/20 02:30:12;;;;;;;1.20;1.10;;;3.50;98.80;;;3.29;62.90;94919.59;5070236;28;20544;-60
2024/01/20 02:32:39;;;;;;;1.30;1.20;;;3.50;98.70;;;3.27;62.64;94924.03;5070164;28;20454;-60
2024/01/20 02:35:07;;;;;;;1.77;1.17;;;3.50;98.50;;;3.22;62.21;94942.50;5070252;28;20829;-61
2024/01/20 02:37:34;;;;;;;1.27;1.00;;;3.50;98.20;;;3.14;61.68;94929.16;5069846;28;20451;-60
2024/01/20 02:40:03;;;;;;;1.20;1.10;;;3.40;98.10;;;3.07;61.70;94933.91;5070117;28;20454;-61
2024/01/20 02:42:30;;;;;;;1.33;1.23;;;3.30;98.10;;;3.00;61.71;94948.16;5069981;28;20451;-61
2024/01/20 02:44:57;;;;;;;1.40;1.10;;;3.30;98.20;;;2.98;62.28;94968.22;5069948;28;20458;-63
2024/01/20 02:47:24;;;;;;;1.20;1.10;;;3.20;98.10;;;2.93;61.68;94967.63;5069596;28;20994;-61
2024/01/20 02:49:52;;;;;;;1.57;1.47;;;3.20;97.90;;;2.90;61.81;94988.59;5069736;28;21171;-61
2024/01/20 02:52:19;;;;;;;1.20;1.10;;;3.20;97.90;;;2.84;61.91;94982.84;5069556;28;20481;-62
2024/01/20 02:54:46;;;;;;;1.53;1.20;;;3.10;97.80;;;2.78;61.69;94984.97;5069934;28;20477;-63
2024/01/20 02:57:16;;;;;;;1.57;1.07;;;3.10;98.00;;;2.68;61.69;94990.72;5069700;28;21023;-63
2024/01/20 02:59:43;;;;;;;1.20;1.10;;;3.00;98.00;;;2.61;62.36;94997.19;5069806;28;20500;-60
2024/01/20 03:02:10;;;;;;;1.00;0.90;;;2.90;98.10;;;2.55;61.89;94999.28;5069946;28;20471;-63
2024/01/20 03:04:37;;;;;;;1.47;1.37;;;2.90;98.40;;;2.50;62.45;95002.97;5069878;28;20455;-60
2024/01/20 03:07:05;;;;;;;1.33;1.23;;;2.80;98.70;;;2.48;62.55;94991.03;5069508;28;20585;-63
2024/01/20 03:09:32;;;;;;;1.43;1.27;;;2.80;98.90;;;2.43;62.87;94999.09;5065667;28;20455;-60
2024/01/20 03:12:01;;;;;;;1.17;1.00;;;2.70;98.80;;;2.40;63.33;94991.47;5065793;28;20471;-60
2024/01/20 03:14:30;;;;;;;1.27;1.17;;;2.70;99.00;;;2.37;62.79;94996.84;5065659;28;20488;-61
2024/01/20 03:16:57;;;;;;;1.20;1.10;;;2.70;99.20;;;2.37;63.80;95017.59;5065902;28;20482;-61
2024/01/20 03:19:24;;;;;;;1.63;1.33;;;2.70;99.60;;;2.37;63.71;95021.94;5069607;28;20474;-61
2024/01/20 03:21:51;;;;;;;1.10;1.00;;;2.70;99.60;;;2.34;64.28;95022.97;5065644;28;20482;-64
2024/01/20 03:24:19;;;;;;;1.20;1.07;;;2.60;99.80;;;2.32;63.45;95024.78;5065348;28;20967;-60
2024/01/20 03:26:47;;;;;;;1.03;0.93;;;2.60;99.90;;;2.28;64.71;95028.50;5064599;28;20580;-61
2024/01/20 03:29:14;;;;;;;1.30;1.20;;;2.60;99.90;;;2.23;64.62;95027.91;5064888;28;20446;-63
2024/01/20 03:31:43;;;;;;;1.20;1.10;;;2.60;99.90;;;2.21;64.51;95042.72;5065070;28;21003;-61
2024/01/20 03:34:10;;;;;;;1.03;0.97;;;2.50;99.90;;;2.19;64.67;95040.22;5065572;28;20450;-63
2024/01/20 03:36:37;;;;;;;1.20;0.93;;;2.50;99.90;;;2.18;64.50;95048.91;5065348;28;20600;-59
2024/01/20 03:39:05;;;;;;;1.00;0.90;;;2.50;99.90;;;2.16;65.06;95045.56;5069162;28;20463;-63
2024/01/20 03:41:32;;;;;;;1.93;1.33;;;2.50;99.90;;;2.18;64.47;95042.91;5065415;28;20528;-63
2024/01/20 03:43:59;;;;;;;1.20;1.10;;;2.50;99.90;;;2.22;65.26;95041.81;5069120;28;20474;-62
2024/01/20 03:46:27;;;;;;;1.03;0.93;;;2.50;99.90;;;2.24;65.56;95042.56;5068949;28;20528;-63
2024/01/20 03:48:55;;;;;;;1.00;0.90;;;2.50;99.90;;;2.27;65.35;95044.97;5069122;28;20928;-61
2024/01/20 03:51:26;;;;;;;3.63;0.80;;;2.50;99.90;;;2.25;65.51;95052.03;5069155;28;20471;-62
2024/01/20 03:53:53;;;;;;;1.03;0.93;;;2.50;99.90;;;2.25;65.92;95054.63;5065218;28;20458;-63
2024/01/20 03:56:21;;;;;;;1.20;1.10;;;2.50;99.90;;;2.22;65.22;95066.00;5065561;28;20455;-62
2024/01/20 03:58:48;;;;;;;1.10;1.00;;;2.50;99.90;;;2.18;65.30;95056.69;5065637;28;20528;-64
2024/01/20 04:01:15;;;;;;;0.90;0.80;;;2.50;99.90;;;2.17;66.90;95072.34;5065326;28;20558;-61
2024/01/20 04:03:44;;;;;;;1.27;1.17;;;2.40;99.90;;;2.15;66.76;95069.84;5065257;28;20768;-61
2024/01/20 04:06:12;;;;;;;0.80;0.80;;;2.40;99.90;;;2.13;65.38;95061.31;5065105;28;20467;-60
2024/01/20 04:08:40;;;;;;;1.20;1.10;;;2.40;99.90;;;2.15;65.78;95070.69;5064726;28;20458;-63
2024/01/20 04:11:07;;;;;;;1.10;1.00;;;2.50;99.90;;;2.19;66.56;95079.13;5064938;28;20471;-60
2024/01/20 04:13:34;;;;;;;1.20;1.00;;;2.50;99.90;;;2.21;65.92;95081.66;5065263;28;20443;-61
2024/01/20 04:16:02;;;;;;;1.00;0.90;;;2.50;99.90;;;2.20;65.25;95095.53;5065071;28;20466;-62
2024/01/20 04:18:29;;;;;;;1.77;1.10;;;2.50;99.90;;;2.21;66.21;95099.81;5065204;28;20458;-63
2024/01/20 04:20:56;;;;;;;1.10;0.93;;;2.50;99.90;;;2.21;65.85;95094.63;5065444;28;20856;-62
2024/01/20 04:23:25;;;;;;;1.07;0.97;;;2.50;99.90;;;2.23;65.98;95106.59;5068663;28;20447;-61
2024/01/20 04:25:53;;;;;;;3.13;1.83;;;2.50;99.90;;;2.24;65.63;95100.47;5064602;28;21026;-60
2024/01/20 04:28:20;;;;;;;4.40;3.77;;;2.50;99.90;;;2.26;65.73;95105.56;5064600;28;20513;-61
2024/01/20 04:30:48;;;;;;;3.00;1.97;;;2.50;99.90;;;2.28;66.03;95116.72;5064751;28;21002;-61
2024/01/20 04:33:15;;;;;;;2.77;2.57;;;2.50;99.90;;;2.29;66.02;95120.97;5068892;28;20447;-61
2024/01/20 04:35:42;;;;;;;1.30;1.20;;;2.60;99.90;;;2.27;65.83;95126.25;5069154;28;20467;-62
2024/01/20 04:38:10;;;;;;;1.10;1.00;;;2.60;99.90;;;2.24;65.44;95135.97;5070691;28;20462;-63
2024/01/20 04:40:38;;;;;;;5.83;1.77;;;2.60;99.90;;;2.22;65.86;95140.41;5072188;28;20471;-63
2024/01/20 04:43:06;;;;;;;1.37;1.27;;;2.50;99.90;;;2.22;65.89;95143.84;5072077;28;20474;-61
2024/01/20 04:45:33;;;;;;;4.90;4.50;;;2.50;99.90;;;2.21;65.81;95133.53;5072676;28;20489;-63
2024/01/20 04:48:00;;;;;;;2.40;2.30;;;2.50;99.90;;;2.21;65.78;95136.13;5072479;28;20986;-61
2024/01/20 04:50:28;;;;;;;1.37;1.27;;;2.50;99.90;;;2.18;66.50;95139.72;5072472;28;20506;-63
2024/01/20 04:52:55;;;;;;;1.20;1.10;;;2.50;99.90;;;2.17;65.68;95139.81;5072442;28;20482;-61
2024/01/20 04:55:22;;;;;;;1.40;1.17;;;2.50;99.90;;;2.14;66.25;95148.63;5072402;28;20557;-63
2024/01/20 04:57:51;;;;;;;3.23;1.20;;;2.40;99.90;;;2.11;66.22;95149.59;5071978;28;20816;-63
2024/01/20 05:00:19;;;;;;;1.93;1.20;;;2.40;99.90;;;2.11;66.85;95146.19;5072090;28;20514;-62
2024/01/20 05:02:47;;;;;;;2.03;1.13;;;2.40;99.90;;;2.12;66.19;95148.69;5070948;28;20446;-63
2024/01/20 05:05:14;;;;;;;1.53;1.43;;;2.40;99.90;;;2.11;65.74;95144.41;5071232;28;20462;-61
2024/01/20 05:07:41;;;;;;;1.60;1.50;;;2.40;99.90;;;2.07;65.70;95161.06;5071606;28;20514;-64
2024/01/20 05:10:09;;;;;;;1.07;0.97;;;2.40;99.90;;;2.04;66.09;95163.81;5071736;28;20470;-65
2024/01/20 05:12:36;;;;;;;2.33;1.50;;;2.30;99.90;;;1.99;66.51;95163.22;5071925;28;20451;-62
2024/01/20 05:15:10;;;;;;;1.00;0.90;;;2.30;99.90;;;1.97;66.36;95165.91;5071554;28;20457;-61
2024/01/20 05:17:38;;;;;;;1.20;1.00;;;2.30;99.90;;;1.94;65.85;95160.03;5067961;28;20504;-62
2024/01/20 05:20:07;;;;;;;2.53;2.33;;;2.30;99.90;;;1.97;66.43;95171.09;5067691;28;20494;-62
2024/01/20 05:22:34;;;;;;;2.57;2.40;;;2.30;99.90;;;1.96;66.63;95174.59;5067893;28;20455;-63
2024/01/20 05:25:03;;;;;;;2.40;1.67;;;2.30;99.90;;;1.97;66.21;95178.03;5071531;28;20826;-61
2024/01/20 05:27:31;;;;;;;1.70;1.60;;;2.30;99.90;;;1.96;65.76;95178.94;5067652;28;21011;-63
2024/01/20 05:29:58;;;;;;;2.13;1.57;;;2.30;99.90;;;1.96;66.15;95176.34;5071421;28;20482;-61
2024/01/20 05:32:27;;;;;;;1.40;1.30;;;2.30;99.90;;;1.95;65.33;95172.06;5070656;28;20451;-61
2024/01/20 05:34:54;;;;;;;1.30;1.20;;;2.30;99.90;;;1.96;65.81;95176.34;5070634;28;20470;-61
2024/01/20 05:37:22;;;;;;;1.47;1.23;;;2.30;99.90;;;1.92;65.52;95175.69;5072380;28;20516;-62
2024/01/20 05:39:49;;;;;;;2.70;2.50;;;2.30;99.90;;;1.91;66.15;95176.59;5071619;28;20489;-64
2024/01/20 05:42:16;;;;;;;2.77;2.60;;;2.20;99.90;;;1.90;65.49;95177.50;5071369;28;20455;-61
2024/01/20 05:44:44;;;;;;;1.80;1.67;;;2.20;99.90;;;1.91;66.40;95186.13;5067406;28;20556;-64
2024/01/20 05:47:12;;;;;;;1.70;1.60;;;2.20;99.90;;;1.92;66.13;95188.66;5064961;28;20486;-63
2024/01/20 05:49:41;;;;;;;2.67;1.90;;;2.20;99.90;;;1.94;65.99;95181.63;5059389;28;20451;-63
2024/01/20 05:52:08;;;;;;;1.73;1.23;;;2.20;99.90;;;1.92;65.79;95180.88;5067620;28;20512;-63
2024/01/20 05:54:35;;;;;;;2.00;1.60;;;2.20;99.90;;;1.95;65.40;95183.31;5070837;28;20984;-64
2024/01/20 05:57:03;;;;;;;3.40;1.57;;;2.20;99.90;;;1.96;65.62;95186.72;5067409;28;20563;-63
2024/01/20 05:59:30;;;;;;;4.50;1.97;;;2.20;99.90;;;1.96;65.95;95191.91;5067716;28;20574;-63
2024/01/20 06:01:58;;;;;;;5.43;1.50;;;2.30;99.90;;;1.97;66.50;95197.03;5066436;28;21072;-62
2024/01/20 06:04:25;;;;;;;1.20;1.10;;;2.30;99.90;;;1.97;65.71;95194.44;5066033;28;20489;-63
2024/01/20 06:06:54;;;;;;;2.70;2.00;;;2.30;99.90;;;1.97;65.58;95194.44;5067360;28;20474;-63
2024/01/20 06:09:21;;;;;;;1.87;1.47;;;2.20;99.90;;;1.95;65.62;95196.28;5066894;28;20451;-61
2024/01/20 06:11:49;;;;;;;1.63;1.20;;;2.30;99.90;;;1.95;65.33;95193.69;5067324;28;20528;-63
2024/01/20 06:14:16;;;;;;;2.10;1.90;;;2.30;99.90;;;1.98;65.68;95205.63;5067005;28;20458;-62
2024/01/20 06:16:44;;;;;;;1.40;1.30;;;2.30;99.90;;;2.00;65.81;95210.75;5066733;28;20498;-61
2024/01/20 06:19:11;;;;;;;5.40;1.67;;;2.30;99.90;;;1.98;66.53;95213.41;5066448;28;20943;-61
2024/01/20 06:21:39;;;;;;;1.63;1.50;;;2.30;99.90;;;1.99;66.18;95209.91;5066522;28;20493;-60
2024/01/20 06:24:09;;;;;;;2.70;2.27;;;2.30;99.90;;;1.97;66.50;95222.13;5070633;28;20545;-63
2024/01/20 06:26:37;;;;;;;1.73;1.63;;;2.30;99.90;;;1.93;66.99;95220.59;5066666;28;20482;-63
2024/01/20 06:29:04;;;;;;;1.60;1.50;;;2.30;99.90;;;1.92;65.67;95218.91;5066812;28;20578;-62
2024/01/20 06:31:31;;;;;;;1.63;1.53;;;2.20;99.90;;;1.91;66.43;95227.63;5066331;28;21002;-66
2024/01/20 06:33:58;;;;;;;1.70;1.60;;;2.20;99.90;;;1.92;66.08;95235.34;5065103;28;20508;-62
2024/01/20 06:36:26;;;;;;;7.00;1.43;;;2.20;99.90;;;1.95;66.42;95239.50;5066042;28;20470;-61
2024/01/20 06:38:53;;;;;;;5.30;4.80;;;2.20;99.90;;;1.96;66.64;95236.84;5066233;28;20473;-62
2024/01/20 06:41:22;;;;;;;1.80;1.70;;;2.30;99.90;;;1.95;65.77;95231.72;5069913;28;20479;-62
2024/01/20 06:43:49;;;;;;;1.67;1.57;;;2.30;99.90;;;1.96;65.62;95241.19;5066326;28;20458;-62
2024/01/20 06:46:17;;;;;;;1.70;1.60;;;2.30;99.90;;;1.96;66.22;95251.56;5066318;28;20474;-62
2024/01/20 06:48:44;;;;;;;1.70;1.50;;;2.30;99.90;;;1.95;65.36;95244.69;5069691;28;20875;-62
2024/01/20 06:51:14;;;;;;;1.87;1.77;;;2.20;99.90;;;1.94;65.46;95248.22;5069826;28;20478;-62
2024/01/20 06:53:43;;;;;;;3.23;2.97;;;2.20;99.90;;;1.91;65.22;95253.56;5066305;28;21108;-62
2024/01/20 06:56:10;;;;;;;3.73;3.43;;;2.20;99.90;;;1.90;65.88;95251.88;5066225;28;20944;-62
2024/01/20 06:58:41;;;;;;;2.50;1.47;;;2.20;99.90;;;1.88;65.46;95256.31;5055714;28;21220;-62
2024/01/20 07:01:08;;;;;;;1.87;1.77;;;2.20;99.90;;;1.87;66.26;95262.41;5066010;28;20467;-62
2024/01/20 07:03:36;;;;;;;2.90;2.27;;;2.20;99.90;;;1.89;65.74;95276.13;5064162;28;20462;-63
2024/01/20 07:06:04;;;;;;;9.13;1.97;;;2.20;99.90;;;1.91;66.35;95275.16;5060203;28;20503;-62
2024/01/20 07:08:31;;;;;;;2.80;1.87;;;2.20;99.90;;;1.90;66.19;95272.63;5061935;28;20529;-62
2024/01/20 07:10:58;;;;;;;3.00;1.40;;;2.20;99.90;;;1.92;65.72;95278.56;5069634;28;20462;-62
2024/01/20 07:13:26;;;;;;;2.23;1.60;;;2.20;99.90;;;1.92;66.27;95276.84;5069715;28;20990;-62
2024/01/20 07:15:55;;;;;;;2.47;2.27;;;2.20;99.90;;;1.90;66.52;95272.63;5069795;28;20528;-62
2024/01/20 07:18:23;;;;;;;1.57;1.47;;;2.20;99.90;;;1.90;65.86;95275.22;5069523;28;20447;-62
2024/01/20 07:20:51;;;;;;;4.13;3.63;;;2.20;99.90;;;1.92;66.23;95286.34;5069802;28;20894;-63
2024/01/20 07:23:18;;;;;;;3.20;2.00;;;2.20;99.90;;;1.94;65.29;95287.16;5069565;28;20455;-63
2024/01/20 07:25:46;;;;;;;2.60;2.40;;;2.20;99.90;;;1.92;66.67;95287.22;5069501;28;21055;-62
2024/01/20 07:28:14;;;;;;;2.20;2.00;;;2.20;99.90;;;1.96;65.99;95295.69;5069617;28;20498;-62
2024/01/20 07:30:41;;;;;;;2.80;2.60;;;2.20;99.90;;;2.00;65.60;95302.41;5069669;28;20466;-64
2024/01/20 07:33:10;;;;;;;2.30;2.10;;;2.30;99.90;;;2.05;65.79;95307.34;5068077;28;20467;-62
2024/01/20 07:35:38;;;;;;;4.70;4.30;;;2.30;99.90;;;2.09;65.47;95304.53;5069221;28;20556;-62
2024/01/20 07:38:05;;;;;;;3.27;2.97;;;2.40;99.90;;;2.13;65.78;95310.38;5069409;28;20500;-62
2024/01/20 07:40:33;;;;;;;2.27;2.10;;;2.40;99.90;;;2.14;67.05;95310.31;5069278;28;20467;-62
2024/01/20 07:43:01;;;;;;;2.93;2.70;;;2.40;99.90;;;2.18;65.58;95308.38;5069608;28;20473;-62
2024/01/20 07:45:30;;;;;;;3.43;3.13;;;2.50;99.90;;;2.23;65.26;95318.53;5069318;28;20477;-63
2024/01/20 07:47:57;;;;;;;2.70;2.07;;;2.50;99.90;;;2.25;65.86;95319.31;5069270;28;20491;-62
2024/01/20 07:50:26;;;;;;;2.63;2.20;;;2.50;99.90;;;2.26;64.74;95328.75;5069502;28;20462;-61
2024/01/20 07:52:54;;;;;;;2.00;1.70;;;2.50;99.90;;;2.27;65.83;95330.44;5069395;28;20466;-62
2024/01/20 07:55:21;;;;;;;3.13;2.63;;;2.60;99.90;;;2.26;65.03;95331.34;5069620;28;20475;-64
2024/01/20 07:57:48;;;;;;;2.50;2.30;;;2.60;99.90;;;2.30;64.74;95338.09;5069222;28;20466;-62
2024/01/20 08:00:17;;;;;;;3.17;2.60;;;2.50;99.90;;;2.32;64.96;95333.63;5069126;28;20479;-62
2024/01/20 08:02:45;;;;;;;2.13;1.93;;;2.60;99.90;;;2.38;65.78;95348.91;5069294;28;20546;-61
2024/01/20 08:05:12;;;;;;;2.50;2.30;;;2.60;99.90;;;2.42;65.14;95353.03;5069055;28;20507;-62
2024/01/20 08:07:41;;;;;;;2.57;2.37;;;2.70;99.90;;;2.43;64.14;95359.91;5067633;28;20455;-62
2024/01/20 08:10:09;;;;;;;2.40;1.80;;;2.70;99.90;;;2.40;65.13;95362.66;5067359;28;20802;-62
2024/01/20 08:12:36;;;;;;;4.43;2.77;;;2.70;99.90;;;2.37;65.17;95352.44;5068545;28;20462;-63
2024/01/20 08:15:05;;;;;;;2.37;2.17;;;2.70;99.90;;;2.35;64.40;95346.47;5071780;28;20458;-62
2024/01/20 08:17:32;;;;;;;2.50;1.90;;;2.70;99.90;;;2.34;64.48;95350.00;5071745;28;20898;-62
2024/01/20 08:20:00;;;;;;;3.10;2.57;;;2.60;99.90;;;2.34;64.86;95352.59;5071323;28;20464;-62
2024/01/20 08:22:27;;;;;;;3.63;2.73;;;2.60;99.90;;;2.33;64.62;95364.72;5072479;28;20455;-61
2024/01/20 08:24:56;;;;;;;11.20;4.20;;;2.60;99.90;;;2.39;64.66;95380.91;5072683;28;20975;-62
2024/01/20 08:27:23;;;;;;;25.30;13.77;;;2.60;99.90;;;2.44;65.34;95373.72;5073169;28;20451;-62
2024/01/20 08:29:50;;;;;;;7.23;6.50;;;2.70;99.90;;;2.48;65.07;95376.09;5072611;28;21018;-62
2024/01/20 08:32:18;;;;;;;8.43;6.90;;;2.70;99.90;;;2.53;64.53;95388.00;5071329;28;20520;-62
2024/01/20 08:34:45;;;;;;;3.80;3.20;;;2.80;99.90;;;2.56;64.74;95390.44;5072434;28;20461;-62
2024/01/20 08:37:12;;;;;;;3.10;2.60;;;2.80;99.90;;;2.61;64.95;95383.25;5072732;28;20502;-61
2024/01/20 08:39:40;;;;;;;5.03;2.70;;;2.90;99.90;;;2.61;64.22;95380.66;5072361;28;20459;-62
2024/01/20 08:42:09;;;;;;;3.37;3.07;;;2.90;99.90;;;2.61;63.84;95385.84;5072569;28;20483;-61
2024/01/20 08:44:36;;;;;;;3.00;2.70;;;2.90;99.90;;;2.62;64.82;95390.97;5072262;28;20512;-62
2024/01/20 08:47:03;;;;;;;3.40;2.87;;;2.90;99.90;;;2.63;63.43;95392.66;5072487;28;20473;-61
2024/01/20 08:49:31;;;;;;;2.90;2.67;;;2.90;99.90;;;2.65;64.25;95401.19;5072261;28;20486;-62
2024/01/20 08:51:58;;;;;;;4.50;3.70;;;2.90;99.90;;;2.71;63.29;95404.38;5072171;28;20489;-62
2024/01/20 08:54:26;;;;;;;7.43;4.53;;;3.00;99.90;;;2.74;62.63;95397.25;5072447;28;20540;-63
2024/01/20 08:56:53;;;;;;;4.50;4.10;;;3.00;99.70;;;2.72;62.92;95406.91;5072605;28;20623;-62
2024/01/20 08:59:22;;;;;;;7.30;4.63;;;3.00;99.90;;;2.71;63.27;95401.78;5072121;28;20451;-62
2024/01/20 09:01:49;;;;;;;4.43;4.00;;;3.00;99.90;;;2.71;63.60;95407.81;5071474;28;20493;-63
2024/01/20 09:04:17;;;;;;;4.83;4.30;;;3.00;99.80;;;2.77;62.94;95404.06;5071697;28;20455;-62
2024/01/20 09:06:44;;;;;;;5.40;4.90;;;3.00;99.70;;;2.79;62.72;95402.22;5072377;28;20493;-62
2024/01/20 09:09:11;;;;;;;12.60;4.30;;;3.00;99.90;;;2.84;62.33;95406.25;5071933;28;20835;-62
2024/01/20 09:11:38;;;;;;;5.73;4.83;;;3.10;99.70;;;2.89;62.73;95423.38;5072183;28;20977;-62
2024/01/20 09:14:06;;;;;;;4.53;3.83;;;3.10;99.40;;;2.96;62.87;95411.72;5068230;28;20455;-62
2024/01/20 09:16:34;;;;;;;7.07;5.23;;;3.20;99.40;;;3.00;61.78;95419.28;5063740;28;20471;-62
2024/01/20 09:19:02;;;;;;;7.60;4.77;;;3.30;99.00;;;3.01;61.07;95418.38;5065334;28;20439;-63
2024/01/20 09:21:29;;;;;;;5.67;5.00;;;3.30;98.30;;;3.02;61.18;95427.00;5066978;28;20890;-62
2024/01/20 09:23:56;;;;;;;6.60;5.00;;;3.30;98.40;;;3.02;61.29;95429.59;5058570;28;20452;-61
2024/01/20 09:26:24;;;;;;;6.63;5.53;;;3.30;98.20;;;3.01;61.72;95427.94;5067912;28;20463;-62
2024/01/20 09:28:51;;;;;;;6.37;5.13;;;3.20;98.40;;;3.04;61.72;95428.59;5067540;28;20496;-62
2024/01/20 09:31:19;;;;;;;14.77;5.63;;;3.30;98.50;;;3.07;60.88;95426.75;5064020;28;20478;-62
2024/01/20 09:33:47;;;;;;;7.83;5.80;;;3.30;98.30;;;3.10;60.42;95427.47;5063280;28;20475;-62
2024/01/20 09:36:15;;;;;;;11.53;6.43;;;3.30;97.50;;;3.11;60.91;95421.31;5062767;28;20478;-62
2024/01/20 09:38:42;;;;;;;9.87;6.67;;;3.40;97.90;;;3.12;60.71;95430.81;5059940;28;20517;-61
2024/01/20 09:41:10;;;;;;;9.13;6.60;;;3.40;98.10;;;3.16;60.66;95440.13;5063560;28;21019;-62
2024/01/20 09:43:39;;;;;;;9.57;6.60;;;3.40;98.00;;;3.16;60.80;95437.53;5067314;28;20542;-62
2024/01/20 09:46:06;;;;;;;9.77;6.53;;;3.40;97.40;;;3.15;60.82;95435.03;5067279;28;20525;-62
2024/01/20 09:48:33;;;;;;;8.07;6.43;;;3.40;97.90;;;3.17;60.60;95446.16;5067129;28;21037;-62
2024/01/20 09:51:02;;;;;;;10.10;4.90;;;3.40;98.00;;;3.17;60.42;95433.16;5066822;28;20470;-62
2024/01/20 09:53:30;;;;;;;6.67;5.70;;;3.40;97.80;;;3.15;60.27;95441.03;5067576;28;20451;-62
2024/01/20 09:55:57;;;;;;;11.43;6.57;;;3.40;97.40;;;3.04;60.37;95433.81;5067099;28;20477;-61
2024/01/20 09:58:25;;;;;;;7.13;5.60;;;3.40;97.30;;;2.97;60.57;95437.63;5071383;28;20557;-62
2024/01/20 10:00:52;;;;;;;8.93;6.50;;;3.20;97.70;;;2.97;61.28;95434.22;5070556;28;20471;-62
2024/01/20 10:03:20;;;;;;;9.23;6.67;;;3.20;97.80;;;2.91;61.14;95431.94;5070256;28;20482;-62
2024/01/20 10:05:47;;;;;;;9.57;6.57;;;3.20;97.70;;;2.86;61.44;95425.19;5070828;28;21014;-63
2024/01/20 10:08:16;;;;;;;6.33;5.40;;;3.10;97.90;;;2.85;60.81;95427.88;5071133;28;20487;-62
2024/01/20 10:10:43;;;;;;;9.13;6.00;;;3.10;97.90;;;2.85;61.05;95431.34;5066657;28;20466;-62
2024/01/20 10:13:11;;;;;;;12.23;6.20;;;3.10;98.00;;;2.81;60.60;95427.19;5071935;28;20840;-62
2024/01/20 10:15:39;;;;;;;7.03;5.67;;;3.10;97.60;;;2.74;60.90;95419.81;5071521;28;20478;-62
2024/01/20 10:18:10;;;;;;;10.60;6.47;;;3.00;97.80;;;2.66;61.57;95420.19;5070544;28;20458;-62
2024/01/20 10:20:38;;;;;;;10.07;7.30;;;2.90;97.90;;;2.67;61.72;95421.88;5066693;28;20505;-62
2024/01/20 10:23:06;;;;;;;9.17;6.50;;;2.90;98.10;;;2.65;60.90;95419.38;5070876;28;20454;-62
2024/01/20 10:25:35;;;;;;;8.20;6.47;;;2.90;98.10;;;2.65;61.24;95410.72;5067011;28;20471;-62
2024/01/20 10:28:03;;;;;;;11.57;5.83;;;2.90;98.00;;;2.63;61.25;95404.78;5070961;28;20459;-62
2024/01/20 10:30:30;;;;;;;9.97;6.47;;;2.90;98.00;;;2.55;61.30;95410.34;5069463;28;20501;-61
2024/01/20 10:32:59;;;;;;;7.30;6.20;;;2.80;97.90;;;2.48;61.70;95420.22;5062572;28;20497;-62
2024/01/20 10:35:26;;;;;;;13.13;6.87;;;2.70;98.20;;;2.49;62.35;95405.47;5067096;28;20491;-62